Time;durP1;ratioP1;P1;durP2;ratioP2;P2;SDS_P1;SDS_P2;PMS_P1;PMS_P2;Temp;Humidity;BMP_temperature;BMP_pressure;BME280_temperature;BME280_humidity;BME280_pressure;Samples;Min_cycle;Max_cycle;Signal;HPM_P1;HPM_P2
2023/04/12 00:00:11;;;;;;;;;;;;;;;8.64;76.12;100707.78;107820;1254;67572;-82
2023/04/12 00:03:01;;;;;;;;;;;;;;;8.72;76.22;100709.96;107690;1254;125034;-82
2023/04/12 00:05:29;;;;;;;;;;;;;;;8.79;76.22;100704.73;107335;1254;59916;-81
2023/04/12 00:07:57;;;;;;;;;;;;;;;8.85;76.21;100709.48;107474;1254;124976;-81
2023/04/12 00:10:25;;;;;;;;;;;;;;;8.91;76.16;100704.06;107579;1254;74825;-81
2023/04/12 00:12:52;;;;;;;;;;;;;;;8.93;76.00;100700.80;107254;1254;66871;-82
2023/04/12 00:15:22;;;;;;;;;;;;;;;8.94;75.84;100700.50;107517;1254;125218;-82
2023/04/12 00:17:49;;;;;;;;;;;;;;;8.96;75.73;100697.03;107781;1253;59723;-82
2023/04/12 00:20:17;;;;;;;;;;;;;;;8.97;75.72;100698.13;108046;1254;125138;-81
2023/04/12 00:22:44;;;;;;;;;;;;;;;9.02;75.79;100699.66;108431;1253;74378;-80
2023/04/12 00:25:11;;;;;;;;;;;;;;;9.08;75.84;100697.77;108278;1253;65897;-80
2023/04/12 00:27:38;;;;;;;;;;;;;;;9.11;75.85;100695.57;107630;1253;125498;-81
2023/04/12 00:30:07;;;;;;;;;;;;;;;9.14;75.94;100693.74;107920;1254;59795;-80
2023/04/12 00:32:34;;;;;;;;;;;;;;;9.16;75.85;100688.19;107559;1254;124906;-80
2023/04/12 00:35:01;;;;;;;;;;;;;;;9.19;75.81;100691.05;107606;1253;74924;-80
2023/04/12 00:37:28;;;;;;;;;;;;;;;9.19;75.83;100687.42;107901;1253;124715;-80
2023/04/12 00:39:55;;;;;;;;;;;;;;;9.20;75.81;100690.41;107978;1254;72405;-80
2023/04/12 00:42:22;;;;;;;;;;;;;;;9.21;75.76;100686.40;108337;1254;59608;-80
2023/04/12 00:44:49;;;;;;;;;;;;;;;9.16;75.65;100690.48;108030;1257;125170;-80
2023/04/12 00:47:16;;;;;;;;;;;;;;;9.15;75.70;100692.02;107921;1259;73374;-80
2023/04/12 00:49:43;;;;;;;;;;;;;;;9.15;75.70;100690.79;107813;1253;124800;-80
2023/04/12 00:52:10;;;;;;;;;;;;;;;9.15;75.69;100692.89;108124;1253;72946;-80
2023/04/12 00:54:38;;;;;;;;;;;;;;;9.11;75.56;100696.80;107818;1254;60133;-80
2023/04/12 00:57:06;;;;;;;;;;;;;;;9.08;75.54;100696.70;107720;1259;125178;-80
2023/04/12 00:59:33;;;;;;;;;;;;;;;9.05;75.50;100693.45;107859;1254;74713;-80
2023/04/12 01:02:00;;;;;;;;;;;;;;;9.03;75.45;100688.86;108044;1254;125091;-80
2023/04/12 01:04:28;;;;;;;;;;;;;;;9.01;75.31;100688.27;107841;1253;74270;-80
2023/04/12 01:07:02;;;;;;;;;;;;;;;8.95;75.29;100685.30;107479;1257;61450;-80
2023/04/12 01:09:35;;;;;;;;;;;;;;;8.92;75.40;100685.20;107374;1254;124545;-81
2023/04/12 01:12:07;;;;;;;;;;;;;;;8.90;75.29;100687.92;107572;1253;74269;-81
2023/04/12 01:14:39;;;;;;;;;;;;;;;8.83;75.20;100688.92;107497;1254;124396;-81
2023/04/12 01:17:06;;;;;;;;;;;;;;;8.79;75.35;100686.00;107700;1254;73078;-80
2023/04/12 01:19:56;;;;;;;;;;;;;;;8.73;75.35;100680.77;107698;1253;124200;-80
2023/04/12 01:22:42;;;;;;;;;;;;;;;8.69;75.41;100683.96;107541;1254;59695;-81
2023/04/12 01:25:15;;;;;;;;;;;;;;;8.66;75.48;100685.08;107492;1253;73454;-81
2023/04/12 01:27:47;;;;;;;;;;;;;;;8.60;75.53;100686.48;107404;1254;124141;-81
2023/04/12 01:30:15;;;;;;;;;;;;;;;8.59;75.58;100688.70;107611;1254;71590;-81
2023/04/12 01:32:43;;;;;;;;;;;;;;;8.58;75.67;100690.62;107220;1260;124608;-80
2023/04/12 01:35:10;;;;;;;;;;;;;;;8.56;75.68;100693.89;107407;1255;61005;-80
2023/04/12 01:37:37;;;;;;;;;;;;;;;8.55;75.70;100695.06;107485;1253;124941;-79
2023/04/12 01:40:04;;;;;;;;;;;;;;;8.53;75.73;100693.63;109014;1254;67983;-80
2023/04/12 01:42:31;;;;;;;;;;;;;;;8.54;75.83;100696.08;108948;1254;73228;-80
2023/04/12 01:44:58;;;;;;;;;;;;;;;8.53;75.64;100693.60;108959;1254;124649;-81
2023/04/12 01:47:26;;;;;;;;;;;;;;;8.50;75.77;100687.39;109030;1254;59839;-81
2023/04/12 01:50:11;;;;;;;;;;;;;;;8.49;75.77;100688.06;108978;1256;125198;-80
2023/04/12 01:52:41;;;;;;;;;;;;;;;8.47;75.76;100688.66;108541;1254;65582;-80
2023/04/12 01:55:08;;;;;;;;;;;;;;;8.46;75.81;100687.27;107262;1254;72831;-80
2023/04/12 01:57:36;;;;;;;;;;;;;;;8.44;75.65;100690.88;107701;1254;125086;-80
2023/04/12 02:00:06;;;;;;;;;;;;;;;8.44;75.84;100693.11;107890;1253;59349;-81
2023/04/12 02:02:35;;;;;;;;;;;;;;;8.44;75.86;100692.42;107546;1254;73339;-80
2023/04/12 02:05:02;;;;;;;;;;;;;;;8.45;75.90;100690.73;107673;1254;65389;-79
2023/04/12 02:07:29;;;;;;;;;;;;;;;8.47;75.90;100689.90;107336;1254;125550;-80
2023/04/12 02:09:56;;;;;;;;;;;;;;;8.48;75.92;100684.69;107450;1257;62264;-80
2023/04/12 02:12:23;;;;;;;;;;;;;;;8.45;75.72;100682.83;107428;1254;60851;-80
2023/04/12 02:14:50;;;;;;;;;;;;;;;8.38;75.70;100682.23;108958;1254;123843;-80
2023/04/12 02:17:18;;;;;;;;;;;;;;;8.32;75.64;100680.65;107496;1253;65489;-80
2023/04/12 02:19:46;;;;;;;;;;;;;;;8.27;75.72;100680.84;107420;1254;124847;-80
2023/04/12 02:22:13;;;;;;;;;;;;;;;8.23;75.82;100676.15;107602;1254;61299;-81
2023/04/12 02:24:40;;;;;;;;;;;;;;;8.22;76.03;100672.63;107919;1254;61378;-80
2023/04/12 02:27:07;;;;;;;;;;;;;;;8.22;76.02;100670.35;107652;1254;124465;-81
2023/04/12 02:29:34;;;;;;;;;;;;;;;8.19;76.04;100670.96;107679;1253;67422;-80
2023/04/12 02:32:01;;;;;;;;;;;;;;;8.16;76.08;100670.52;107574;1253;124403;-80
2023/04/12 02:34:33;;;;;;;;;;;;;;;8.15;76.15;100675.37;107590;1254;59702;-80
2023/04/12 02:37:00;;;;;;;;;;;;;;;8.16;76.23;100674.35;107693;1254;60171;-80
2023/04/12 02:39:28;;;;;;;;;;;;;;;8.17;76.38;100675.43;107584;1253;124736;-79
2023/04/12 02:41:55;;;;;;;;;;;;;;;8.21;76.49;100680.09;107721;1254;66763;-78
2023/04/12 02:44:22;;;;;;;;;;;;;;;8.26;76.55;100686.58;107796;1257;124991;-79
2023/04/12 02:46:49;;;;;;;;;;;;;;;8.31;76.43;100689.33;107949;1254;61029;-79
2023/04/12 02:49:16;;;;;;;;;;;;;;;8.31;76.32;100689.52;108895;1254;59325;-79
2023/04/12 02:51:43;;;;;;;;;;;;;;;8.35;76.42;100689.15;108915;1254;124496;-79
2023/04/12 02:54:10;;;;;;;;;;;;;;;8.38;76.29;100688.36;109098;1254;66804;-79
2023/04/12 02:56:37;;;;;;;;;;;;;;;8.39;76.16;100688.55;108832;1254;125091;-80
2023/04/12 02:59:05;;;;;;;;;;;;;;;8.42;76.26;100691.83;109219;1253;59204;-79
2023/04/12 03:01:32;;;;;;;;;;;;;;;8.47;76.22;100693.92;109118;1253;125335;-80
2023/04/12 03:04:00;;;;;;;;;;;;;;;8.47;76.13;100695.84;109090;1253;73474;-80
2023/04/12 03:06:29;;;;;;;;;;;;;;;8.50;76.14;100693.67;109196;1253;65939;-79
2023/04/12 03:08:56;;;;;;;;;;;;;;;8.52;76.08;100695.13;108418;1256;125156;-81
2023/04/12 03:11:24;;;;;;;;;;;;;;;8.52;75.93;100693.04;107565;1254;61356;-80
2023/04/12 03:13:52;;;;;;;;;;;;;;;8.49;75.86;100693.28;107731;1259;125543;-80
2023/04/12 03:16:23;;;;;;;;;;;;;;;8.47;75.84;100692.69;108116;1253;73709;-80
2023/04/12 03:18:50;;;;;;;;;;;;;;;8.43;75.83;100691.00;107878;1253;67082;-80
2023/04/12 03:21:17;;;;;;;;;;;;;;;8.41;75.82;100688.81;107724;1254;123890;-80
2023/04/12 03:23:45;;;;;;;;;;;;;;;8.40;75.86;100690.34;107719;1254;60590;-80
2023/04/12 03:26:12;;;;;;;;;;;;;;;8.40;75.94;100691.91;107619;1259;124534;-80
2023/04/12 03:28:40;;;;;;;;;;;;;;;8.39;75.89;100688.91;107545;1254;74644;-79
2023/04/12 03:31:07;;;;;;;;;;;;;;;8.36;75.93;100681.83;107725;1259;67137;-79
2023/04/12 03:33:34;;;;;;;;;;;;;;;8.31;75.94;100673.48;107302;1255;72558;-80
2023/04/12 03:36:04;;;;;;;;;;;;;;;8.24;75.94;100671.79;107655;1254;61313;-80
2023/04/12 03:38:31;;;;;;;;;;;;;;;8.15;75.97;100671.33;107330;1256;125187;-80
2023/04/12 03:40:58;;;;;;;;;;;;;;;8.10;76.13;100676.74;107387;1254;74917;-79
2023/04/12 03:43:26;;;;;;;;;;;;;;;8.06;76.41;100674.71;107361;1256;69731;-79
2023/04/12 03:45:53;;;;;;;;;;;;;;;8.06;76.43;100675.22;107475;1254;125126;-80
2023/04/12 03:48:20;;;;;;;;;;;;;;;8.03;76.49;100673.21;107578;1256;61401;-80
2023/04/12 03:50:47;;;;;;;;;;;;;;;8.05;76.71;100675.22;107371;1254;124669;-81
2023/04/12 03:53:14;;;;;;;;;;;;;;;8.09;76.73;100675.86;107433;1254;73201;-82
2023/04/12 03:55:42;;;;;;;;;;;;;;;8.12;76.74;100676.32;107474;1255;67469;-81
2023/04/12 03:58:12;;;;;;;;;;;;;;;8.12;76.71;100672.48;107655;1254;71301;-80
2023/04/12 04:00:39;;;;;;;;;;;;;;;8.11;76.61;100672.10;107899;1254;59615;-79
2023/04/12 04:03:07;;;;;;;;;;;;;;;8.12;76.73;100672.64;107834;1258;125020;-79
2023/04/12 04:05:34;;;;;;;;;;;;;;;8.13;76.76;100673.02;108420;1254;73789;-80
2023/04/12 04:08:01;;;;;;;;;;;;;;;8.16;76.78;100676.09;107559;1259;124917;-80
2023/04/12 04:10:28;;;;;;;;;;;;;;;8.17;76.76;100673.34;107605;1254;71429;-79
2023/04/12 04:12:55;;;;;;;;;;;;;;;8.18;76.81;100673.19;107689;1255;60060;-79
2023/04/12 04:15:22;;;;;;;;;;;;;;;8.22;76.92;100673.49;107739;1254;124595;-79
2023/04/12 04:17:49;;;;;;;;;;;;;;;8.24;76.78;100674.80;107740;1257;73426;-79
2023/04/12 04:20:17;;;;;;;;;;;;;;;8.25;76.79;100677.61;107862;1257;125000;-79
2023/04/12 04:22:47;;;;;;;;;;;;;;;8.26;76.72;100675.02;108073;1255;71211;-80
2023/04/12 04:25:14;;;;;;;;;;;;;;;8.29;76.66;100671.45;108074;1254;61040;-79
2023/04/12 04:27:43;;;;;;;;;;;;;;;8.35;76.76;100673.41;107814;1254;123933;-81
2023/04/12 04:30:11;;;;;;;;;;;;;;;8.42;76.78;100673.48;107885;1253;74540;-79
2023/04/12 04:32:38;;;;;;;;;;;;;;;8.49;76.68;100670.02;107552;1259;124790;-80
2023/04/12 04:35:05;;;;;;;;;;;;;;;8.55;76.64;100673.89;107870;1254;72641;-81
2023/04/12 04:37:35;;;;;;;;;;;;;;;8.65;76.67;100675.25;107610;1254;60045;-80
2023/04/12 04:40:10;;;;;;;;;;;;;;;8.77;76.56;100673.71;107618;1257;124161;-79
2023/04/12 04:42:38;;;;;;;;;;;;;;;8.83;76.23;100672.52;107858;1254;75281;-78
2023/04/12 04:45:12;;;;;;;;;;;;;;;8.82;75.90;100671.95;107409;1254;124482;-79
2023/04/12 04:47:39;;;;;;;;;;;;;;;8.84;76.01;100669.02;108096;1254;72718;-78
2023/04/12 04:50:06;;;;;;;;;;;;;;;8.86;75.94;100674.18;107858;1254;125346;-78
2023/04/12 04:52:33;;;;;;;;;;;;;;;8.95;76.10;100676.90;107745;1255;61880;-80
2023/04/12 04:55:00;;;;;;;;;;;;;;;9.02;75.96;100673.79;107805;1254;74746;-78
2023/04/12 04:57:27;;;;;;;;;;;;;;;9.06;75.83;100675.64;107704;1257;124650;-77
2023/04/12 04:59:54;;;;;;;;;;;;;;;9.06;75.66;100676.36;107981;1254;72001;-79
2023/04/12 05:02:21;;;;;;;;;;;;;;;9.08;75.61;100674.99;107975;1254;125072;-80
2023/04/12 05:04:50;;;;;;;;;;;;;;;9.05;75.57;100676.12;107719;1254;60478;-81
2023/04/12 05:07:21;;;;;;;;;;;;;;;9.10;75.47;100670.86;107854;1254;74692;-79
2023/04/12 05:09:48;;;;;;;;;;;;;;;9.12;75.58;100664.98;107500;1253;124650;-80
2023/04/12 05:12:15;;;;;;;;;;;;;;;9.21;75.50;100664.36;107762;1257;72912;-79
2023/04/12 05:14:42;;;;;;;;;;;;;;;9.34;75.55;100659.48;107586;1254;124720;-79
2023/04/12 05:17:09;;;;;;;;;;;;;;;9.52;75.65;100655.78;107773;1254;61122;-81
2023/04/12 05:19:36;;;;;;;;;;;;;;;9.78;75.43;100660.84;107506;1254;74780;-79
2023/04/12 05:22:03;;;;;;;;;;;;;;;9.93;75.04;100658.10;107609;1257;124406;-78
2023/04/12 05:24:30;;;;;;;;;;;;;;;10.09;74.82;100660.45;107702;1254;72277;-79
2023/04/12 05:26:57;;;;;;;;;;;;;;;10.26;74.72;100660.52;107749;1257;124758;-78
2023/04/12 05:29:24;;;;;;;;;;;;;;;10.55;74.58;100660.89;107639;1254;61833;-78
2023/04/12 05:31:51;;;;;;;;;;;;;;;10.87;74.45;100663.73;107471;1255;124447;-79
2023/04/12 05:34:21;;;;;;;;;;;;;;;11.09;73.87;100663.14;107400;1259;65851;-79
2023/04/12 05:36:48;;;;;;;;;;;;;;;11.34;73.67;100664.90;107387;1254;72672;-79
2023/04/12 05:39:15;;;;;;;;;;;;;;;11.46;72.86;100667.08;108793;1254;125611;-79
2023/04/12 05:41:42;;;;;;;;;;;;;;;11.47;72.67;100669.02;109085;1254;59859;-77
2023/04/12 05:44:09;;;;;;;;;;;;;;;11.58;72.58;100672.23;109070;1254;125574;-79
2023/04/12 05:46:36;;;;;;;;;;;;;;;11.76;72.48;100676.10;109123;1258;65095;-77
2023/04/12 05:49:04;;;;;;;;;;;;;;;11.92;72.28;100680.30;109037;1254;72444;-77
2023/04/12 05:51:31;;;;;;;;;;;;;;;12.13;72.13;100675.92;108912;1259;125832;-77
2023/04/12 05:53:59;;;;;;;;;;;;;;;12.32;71.62;100673.77;109179;1254;59145;-77
2023/04/12 05:56:26;;;;;;;;;;;;;;;12.39;71.23;100667.55;109167;1253;124525;-78
2023/04/12 05:58:53;;;;;;;;;;;;;;;12.44;71.03;100665.54;109077;1254;67753;-79
2023/04/12 06:01:20;;;;;;;;;;;;;;;12.37;70.43;100670.69;109243;1254;72615;-77
2023/04/12 06:03:47;;;;;;;;;;;;;;;12.20;70.09;100668.48;108927;1254;125003;-77
2023/04/12 06:06:14;;;;;;;;;;;;;;;12.04;70.04;100663.45;108957;1254;59052;-79
2023/04/12 06:08:41;;;;;;;;;;;;;;;11.90;69.78;100668.64;109155;1254;124078;-79
2023/04/12 06:11:10;;;;;;;;;;;;;;;11.62;69.53;100664.75;109257;1254;64745;-79
2023/04/12 06:13:38;;;;;;;;;;;;;;;11.48;69.60;100660.45;109000;1259;71191;-79
2023/04/12 06:16:05;;;;;;;;;;;;;;;11.53;69.86;100665.28;108802;1254;124656;-79
2023/04/12 06:18:32;;;;;;;;;;;;;;;11.61;69.90;100666.31;109150;1254;59279;-77
2023/04/12 06:20:59;;;;;;;;;;;;;;;11.64;69.84;100665.14;108823;1254;124178;-77
2023/04/12 06:23:26;;;;;;;;;;;;;;;11.72;69.87;100665.82;108949;1254;68054;-79
2023/04/12 06:25:53;;;;;;;;;;;;;;;11.74;69.56;100663.93;108971;1254;124258;-77
2023/04/12 06:28:20;;;;;;;;;;;;;;;11.81;69.55;100662.14;108845;1259;59683;-77
2023/04/12 06:30:47;;;;;;;;;;;;;;;11.84;69.36;100668.52;108998;1254;59423;-77
2023/04/12 06:33:14;;;;;;;;;;;;;;;11.84;69.35;100670.98;108948;1254;74223;-77
2023/04/12 06:35:41;;;;;;;;;;;;;;;11.88;69.42;100669.30;108922;1255;68446;-77
2023/04/12 06:38:08;;;;;;;;;;;;;;;11.91;69.24;100669.55;109039;1254;124291;-77
2023/04/12 06:40:35;;;;;;;;;;;;;;;11.77;68.73;100667.48;108994;1254;59378;-80
2023/04/12 06:43:02;;;;;;;;;;;;;;;11.66;68.94;100674.52;108913;1256;59199;-79
2023/04/12 06:45:29;;;;;;;;;;;;;;;11.67;68.95;100679.44;108842;1256;125688;-79
2023/04/12 06:47:56;;;;;;;;;;;;;;;11.59;68.80;100680.00;109091;1257;66778;-79
2023/04/12 06:50:24;;;;;;;;;;;;;;;11.54;68.94;100684.27;108786;1254;124770;-79
2023/04/12 06:52:51;;;;;;;;;;;;;;;11.48;69.03;100684.70;109035;1257;59457;-80
2023/04/12 06:55:18;;;;;;;;;;;;;;;11.35;68.99;100686.89;108878;1254;61562;-79
2023/04/12 06:57:45;;;;;;;;;;;;;;;11.27;69.24;100684.45;108993;1254;125799;-79
2023/04/12 07:00:13;;;;;;;;;;;;;;;11.23;69.43;100687.70;108993;1254;64922;-77
2023/04/12 07:02:40;;;;;;;;;;;;;;;11.17;69.52;100681.24;109077;1254;125020;-79
2023/04/12 07:05:07;;;;;;;;;;;;;;;11.19;69.70;100681.11;108956;1254;59185;-80
2023/04/12 07:07:34;;;;;;;;;;;;;;;11.24;69.69;100683.69;109191;1254;59864;-79
2023/04/12 07:10:03;;;;;;;;;;;;;;;11.35;69.80;100681.63;108965;1257;124524;-79
2023/04/12 07:12:30;;;;;;;;;;;;;;;11.42;69.59;100682.29;108886;1257;65740;-79
2023/04/12 07:14:59;;;;;;;;;;;;;;;11.44;69.36;100682.85;108668;1256;124817;-79
2023/04/12 07:17:26;;;;;;;;;;;;;;;11.49;69.24;100682.96;109162;1254;59498;-79
2023/04/12 07:19:53;;;;;;;;;;;;;;;11.56;69.28;100682.73;108872;1257;125516;-76
2023/04/12 07:22:20;;;;;;;;;;;;;;;11.60;68.98;100681.59;108929;1259;74656;-79
2023/04/12 07:24:48;;;;;;;;;;;;;;;11.59;68.67;100686.14;108913;1257;65938;-79
2023/04/12 07:27:15;;;;;;;;;;;;;;;11.54;68.60;100678.66;108985;1254;124931;-79
2023/04/12 07:29:42;;;;;;;;;;;;;;;11.62;68.71;100678.81;109112;1254;59368;-79
2023/04/12 07:32:09;;;;;;;;;;;;;;;11.62;68.49;100680.04;109064;1255;124747;-79
2023/04/12 07:34:38;;;;;;;;;;;;;;;11.53;68.46;100679.00;108965;1257;73410;-80
2023/04/12 07:37:05;;;;;;;;;;;;;;;11.51;68.38;100681.58;109051;1253;65533;-77
2023/04/12 07:39:33;;;;;;;;;;;;;;;11.47;68.44;100681.16;109019;1254;124479;-77
2023/04/12 07:42:01;;;;;;;;;;;;;;;11.42;68.61;100679.48;108086;1254;59755;-76
2023/04/12 07:44:29;;;;;;;;;;;;;;;11.47;68.80;100685.19;107574;1254;124206;-79
2023/04/12 07:46:56;;;;;;;;;;;;;;;11.49;68.77;100682.95;107714;1258;74442;-77
2023/04/12 07:49:23;;;;;;;;;;;;;;;11.47;68.88;100682.05;107797;1259;67460;-77
2023/04/12 07:51:50;;;;;;;;;;;;;;;11.54;69.20;100677.26;108870;1255;124531;-77
2023/04/12 07:54:17;;;;;;;;;;;;;;;11.60;68.98;100675.27;108989;1254;60201;-77
2023/04/12 07:57:04;;;;;;;;;;;;;;;11.57;68.78;100670.27;108974;1254;125395;-79
2023/04/12 07:59:31;;;;;;;;;;;;;;;11.55;68.77;100668.30;109102;1254;74632;-77
2023/04/12 08:01:58;;;;;;;;;;;;;;;11.51;68.53;100671.56;108492;1254;125167;-78
2023/04/12 08:04:27;;;;;;;;;;;;;;;11.53;68.73;100668.09;107783;1254;72718;-79
2023/04/12 08:06:54;;;;;;;;;;;;;;;11.58;68.65;100663.79;107780;1256;61286;-79
2023/04/12 08:09:22;;;;;;;;;;;;;;;11.71;68.83;100655.43;107656;1259;124491;-79
2023/04/12 08:11:49;;;;;;;;;;;;;;;11.82;68.47;100656.54;107468;1254;73462;-78
2023/04/12 08:14:16;;;;;;;;;;;;;;;12.04;68.64;100655.35;107433;1253;125166;-81
2023/04/12 08:16:43;;;;;;;;;;;;;;;12.29;68.44;100657.00;107561;1253;72887;-79
2023/04/12 08:19:10;;;;;;;;;;;;;;;12.42;68.12;100648.95;107610;1255;59850;-79
2023/04/12 08:21:37;;;;;;;;;;;;;;;12.52;67.81;100644.19;107428;1256;124225;-78
2023/04/12 08:24:04;;;;;;;;;;;;;;;12.54;67.39;100644.73;107623;1255;74106;-79
2023/04/12 08:26:31;;;;;;;;;;;;;;;12.42;67.01;100648.77;107610;1254;124211;-80
2023/04/12 08:29:02;;;;;;;;;;;;;;;12.24;66.91;100652.02;107872;1254;73791;-81
2023/04/12 08:31:29;;;;;;;;;;;;;;;12.14;66.88;100648.14;107863;1254;59851;-81
2023/04/12 08:33:56;;;;;;;;;;;;;;;12.18;67.24;100644.35;107729;1259;124262;-80
2023/04/12 08:36:22;;;;;;;;;;;;;;;12.32;67.37;100640.86;107814;1259;73811;-82
2023/04/12 08:38:51;;;;;;;;;;;;;;;12.39;67.06;100637.46;107678;1254;124719;-81
2023/04/12 08:41:19;;;;;;;;;;;;;;;12.36;66.84;100635.30;107826;1254;71381;-81
2023/04/12 08:43:46;;;;;;;;;;;;;;;12.34;66.91;100639.16;107749;1253;124458;-79
2023/04/12 08:46:14;;;;;;;;;;;;;;;12.34;66.81;100640.02;107528;1259;61621;-80
2023/04/12 08:48:45;;;;;;;;;;;;;;;12.47;67.05;100640.41;108340;1254;73056;-81
2023/04/12 08:51:13;;;;;;;;;;;;;;;12.59;66.83;100641.11;107506;1254;124303;-80
2023/04/12 08:53:39;;;;;;;;;;;;;;;12.68;66.54;100646.88;108184;1258;73208;-80
2023/04/12 08:56:12;;;;;;;;;;;;;;;12.55;66.19;100641.07;107931;1254;124656;-79
2023/04/12 08:58:40;;;;;;;;;;;;;;;12.59;66.51;100637.42;107456;1254;60865;-78
2023/04/12 09:01:09;;;;;;;;;;;;;;;12.62;66.43;100636.59;107891;1254;75206;-80
2023/04/12 09:03:36;;;;;;;;;;;;;;;12.57;66.06;100633.17;107508;1262;124217;-79
2023/04/12 09:06:04;;;;;;;;;;;;;;;12.53;66.25;100632.05;107865;1254;71786;-80
2023/04/12 09:08:31;;;;;;;;;;;;;;;12.53;66.20;100632.40;107503;1255;124634;-78
2023/04/12 09:10:59;;;;;;;;;;;;;;;12.49;66.26;100629.70;107818;1254;61097;-78
2023/04/12 09:13:32;;;;;;;;;;;;;;;12.39;66.15;100629.72;107740;1259;73506;-78
2023/04/12 09:15:59;;;;;;;;;;;;;;;12.40;66.49;100625.17;107996;1259;124940;-79
2023/04/12 09:18:26;;;;;;;;;;;;;;;12.59;66.54;100626.50;109096;1254;73189;-79
2023/04/12 09:21:13;;;;;;;;;;;;;;;12.73;66.44;100628.28;108992;1258;124399;-78
2023/04/12 09:23:40;;;;;;;;;;;;;;;12.93;66.22;100628.73;109176;1254;61232;-80
2023/04/12 09:26:08;;;;;;;;;;;;;;;13.08;66.10;100623.64;109082;1254;124972;-79
2023/04/12 09:28:35;;;;;;;;;;;;;;;13.13;65.86;100622.67;109051;1259;66538;-79
2023/04/12 09:31:03;;;;;;;;;;;;;;;13.00;65.53;100624.78;109120;1254;71320;-81
2023/04/12 09:33:36;;;;;;;;;;;;;;;12.92;65.56;100621.86;108855;1254;125140;-81
2023/04/12 09:36:04;;;;;;;;;;;;;;;12.96;65.75;100623.85;108842;1253;59928;-78
2023/04/12 09:38:31;;;;;;;;;;;;;;;13.06;65.76;100622.74;108848;1254;124815;-78
2023/04/12 09:41:21;;;;;;;;;;;;;;;13.15;65.75;100625.67;108717;1261;293924;-77
2023/04/12 09:43:48;;;;;;;;;;;;;;;13.14;65.61;100624.80;109094;1254;126592;-80
2023/04/12 09:46:15;;;;;;;;;;;;;;;13.05;65.27;100622.73;109092;1254;60109;-80
2023/04/12 09:48:57;;;;;;;;;;;;;;;12.93;65.11;100628.05;109150;1254;59470;-78
2023/04/12 09:51:27;;;;;;;;;;;;;;;12.71;64.70;100625.27;109107;1254;124188;-78
2023/04/12 09:53:58;;;;;;;;;;;;;;;12.44;65.06;100623.13;109158;1254;65807;-80
2023/04/12 09:56:27;;;;;;;;;;;;;;;12.32;65.23;100621.16;108753;1260;124835;-79
2023/04/12 09:58:54;;;;;;;;;;;;;;;12.17;65.64;100623.23;109218;1254;59019;-79
2023/04/12 10:01:22;;;;;;;;;;;;;;;12.20;66.15;100621.87;108980;1254;59431;-78
2023/04/12 10:03:49;;;;;;;;;;;;;;;12.18;65.87;100621.29;109070;1259;124627;-77
2023/04/12 10:06:17;;;;;;;;;;;;;;;12.16;66.17;100616.52;108973;1259;65866;-81
2023/04/12 10:08:44;;;;;;;;;;;;;;;12.27;66.40;100610.71;108858;1259;124705;-81
2023/04/12 10:11:11;;;;;;;;;;;;;;;12.42;66.20;100609.35;108946;1255;59425;-79
2023/04/12 10:13:38;;;;;;;;;;;;;;;12.54;66.03;100604.44;108907;1259;59807;-77
2023/04/12 10:16:05;;;;;;;;;;;;;;;12.75;66.21;100608.95;109004;1254;124149;-77
2023/04/12 10:18:33;;;;;;;;;;;;;;;12.96;65.63;100601.29;109142;1259;65652;-79
2023/04/12 10:21:00;;;;;;;;;;;;;;;13.03;65.20;100601.21;108898;1254;125198;-79
2023/04/12 10:23:27;;;;;;;;;;;;;;;13.07;65.06;100598.79;108411;1256;61214;-81
2023/04/12 10:25:55;;;;;;;;;;;;;;;13.14;64.87;100597.47;107370;1253;126511;-80
2023/04/12 10:28:22;;;;;;;;;;;;;;;13.08;64.37;100598.45;107389;1260;75362;-79
2023/04/12 10:30:52;;;;;;;;;;;;;;;13.07;64.64;100596.34;107422;1254;66323;-80
2023/04/12 10:33:19;;;;;;;;;;;;;;;13.25;64.82;100594.63;107509;1259;124310;-80
2023/04/12 10:35:56;;;;;;;;;;;;;;;13.38;64.58;100592.14;108044;1254;59584;-78
2023/04/12 10:38:30;;;;;;;;;;;;;;;13.53;64.54;100587.02;107981;1259;125047;-77
2023/04/12 10:41:09;;;;;;;;;;;;;;;13.56;64.11;100589.50;107953;1253;74507;-77
2023/04/12 10:43:36;;;;;;;;;;;;;;;13.62;64.17;100585.35;108079;1259;67828;-80
2023/04/12 10:46:05;;;;;;;;;;;;;;;13.66;63.83;100586.09;107716;1260;124539;-79
2023/04/12 10:48:39;;;;;;;;;;;;;;;13.75;63.96;100582.29;107772;1255;59669;-80
2023/04/12 10:51:25;;;;;;;;;;;;;;;13.68;63.38;100586.65;107966;1256;124056;-80
2023/04/12 10:53:52;;;;;;;;;;;;;;;13.50;63.28;100586.27;108352;1254;73593;-81
2023/04/12 10:56:32;;;;;;;;;;;;;;;13.33;63.26;100586.98;107659;1254;125106;-77
2023/04/12 10:59:00;;;;;;;;;;;;;;;13.32;63.59;100587.14;107605;1255;70953;-78
2023/04/12 11:01:27;;;;;;;;;;;;;;;13.40;63.84;100577.89;107773;1260;61257;-77
2023/04/12 11:04:13;;;;;;;;;;;;;;;13.49;63.95;100573.74;107796;1254;124391;-78
2023/04/12 11:06:56;;;;;;;;;;;;;;;13.64;63.83;100570.73;107778;1260;74712;-77
2023/04/12 11:09:26;;;;;;;;;;;;;;;13.66;63.50;100569.16;107532;1254;124892;-80
2023/04/12 11:11:56;;;;;;;;;;;;;;;13.54;63.19;100566.22;107728;1255;71497;-80
2023/04/12 11:14:28;;;;;;;;;;;;;;;13.47;63.25;100568.97;107372;1254;125680;-80
2023/04/12 11:17:19;;;;;;;;;;;;;;;13.32;63.33;100568.45;108918;1260;60148;-81
2023/04/12 11:19:48;;;;;;;;;;;;;;;13.29;63.74;100570.16;108943;1254;125150;-80
2023/04/12 11:22:16;;;;;;;;;;;;;;;13.28;63.80;100565.92;109198;1255;66807;-82
2023/04/12 11:24:44;;;;;;;;;;;;;;;13.21;63.76;100567.60;108961;1259;72679;-81
2023/04/12 11:27:11;;;;;;;;;;;;;;;13.09;63.67;100574.52;109103;1257;125115;-80
2023/04/12 11:29:38;;;;;;;;;;;;;;;12.95;63.94;100569.41;108964;1254;60643;-81
2023/04/12 11:32:08;;;;;;;;;;;;;;;12.96;64.19;100570.32;108842;1254;124271;-76
2023/04/12 11:34:35;;;;;;;;;;;;;;;13.03;64.26;100565.80;109124;1254;67070;-78
2023/04/12 11:37:09;;;;;;;;;;;;;;;13.19;64.34;100562.65;108935;1254;72669;-78
2023/04/12 11:39:44;;;;;;;;;;;;;;;13.41;64.30;100562.04;108864;1254;124664;-79
2023/04/12 11:42:14;;;;;;;;;;;;;;;13.51;63.89;100562.15;109276;1255;59346;-78
2023/04/12 11:44:42;;;;;;;;;;;;;;;13.50;63.91;100560.73;109143;1254;124138;-78
2023/04/12 11:47:13;;;;;;;;;;;;;;;13.53;63.89;100565.34;108476;1254;66771;-79
2023/04/12 11:49:44;;;;;;;;;;;;;;;13.50;63.68;100566.17;107611;1254;72480;-78
2023/04/12 11:52:11;;;;;;;;;;;;;;;13.46;63.70;100561.02;107978;1257;59751;-77
2023/04/12 11:54:42;;;;;;;;;;;;;;;13.41;63.70;100563.80;107880;1254;61186;-80
2023/04/12 11:57:13;;;;;;;;;;;;;;;13.36;63.80;100558.65;107381;1254;124133;-80
2023/04/12 11:59:41;;;;;;;;;;;;;;;13.31;63.74;100559.10;107603;1267;66363;-80
2023/04/12 12:02:09;;;;;;;;;;;;;;;13.22;63.82;100558.80;107663;1260;124848;-80
2023/04/12 12:04:36;;;;;;;;;;;;;;;13.16;63.96;100554.88;107888;1260;62191;-79
2023/04/12 12:07:03;;;;;;;;;;;;;;;13.07;63.91;100551.59;107700;1260;61261;-79
2023/04/12 12:09:30;;;;;;;;;;;;;;;13.02;64.08;100544.12;107668;1253;124674;-79
2023/04/12 12:11:57;;;;;;;;;;;;;;;13.09;64.34;100541.39;108047;1254;67251;-79
2023/04/12 12:14:26;;;;;;;;;;;;;;;13.24;64.40;100535.21;107870;1254;124427;-80
2023/04/12 12:16:55;;;;;;;;;;;;;;;13.36;64.42;100536.61;109063;1254;59376;-81
2023/04/12 12:19:26;;;;;;;;;;;;;;;13.50;64.23;100528.64;109056;1254;59388;-79
2023/04/12 12:21:56;;;;;;;;;;;;;;;13.62;64.11;100519.56;108023;1257;124489;-80
2023/04/12 12:24:23;;;;;;;;;;;;;;;13.80;64.16;100507.73;107649;1254;68262;-84
2023/04/12 12:26:50;;;;;;;;;;;;;;;14.10;64.06;100503.01;107714;1254;125184;-78
2023/04/12 12:29:18;;;;;;;;;;;;;;;14.34;63.54;100501.38;108041;1254;61234;-78
2023/04/12 12:31:46;;;;;;;;;;;;;;;14.57;63.40;100499.23;107831;1260;61262;-77
2023/04/12 12:34:13;;;;;;;;;;;;;;;14.85;63.37;100494.23;108948;1254;74724;-79